createdAt,value
2023-05-19T00:00:02.190Z,4.60
2023-05-19T00:05:05.091Z,4.13
2023-05-19T00:07:32.823Z,3.70
2023-05-19T00:10:00.270Z,3.53
2023-05-19T00:12:28.050Z,3.40
2023-05-19T00:14:55.506Z,3.03
2023-05-19T00:17:23.570Z,2.95
2023-05-19T00:19:50.805Z,3.15
2023-05-19T00:22:17.909Z,2.90
2023-05-19T00:24:45.099Z,2.85
2023-05-19T00:27:12.352Z,2.90
2023-05-19T00:29:39.482Z,2.80
2023-05-19T00:32:06.792Z,2.70
2023-05-19T00:34:34.218Z,2.50
2023-05-19T00:37:01.395Z,3.00
2023-05-19T00:39:28.626Z,2.80
2023-05-19T00:41:55.973Z,2.90
2023-05-19T00:44:23.128Z,2.60
2023-05-19T00:46:50.741Z,2.67
2023-05-19T00:49:17.927Z,2.10
2023-05-19T00:51:45.691Z,2.30
2023-05-19T00:54:12.993Z,2.30
2023-05-19T00:56:40.256Z,2.30
2023-05-19T00:59:08.414Z,2.00
2023-05-19T01:01:36.881Z,1.77
2023-05-19T01:04:05.528Z,1.80
2023-05-19T01:06:32.950Z,1.70
2023-05-19T01:09:00.122Z,1.67
2023-05-19T01:11:27.402Z,1.67
2023-05-19T01:13:55.024Z,1.63
2023-05-19T01:16:35.102Z,1.50
2023-05-19T01:19:22.550Z,1.55
2023-05-19T01:22:29.014Z,1.60
2023-05-19T01:25:42.780Z,1.75
2023-05-19T01:28:35.549Z,1.60
2023-05-19T01:31:06.357Z,1.73
2023-05-19T01:33:34.312Z,1.80
2023-05-19T01:36:03.957Z,1.50
2023-05-19T01:38:34.182Z,1.67
2023-05-19T01:41:04.338Z,1.80
2023-05-19T01:43:32.496Z,1.88
2023-05-19T01:46:00.844Z,1.67
2023-05-19T01:48:30.134Z,1.90
2023-05-19T01:50:57.605Z,1.80
2023-05-19T01:53:25.395Z,1.90
2023-05-19T01:55:54.900Z,2.22
2023-05-19T01:58:43.400Z,1.90
2023-05-19T02:01:33.265Z,2.03
2023-05-19T02:04:30.534Z,1.90
2023-05-19T02:07:26.589Z,1.70
2023-05-19T02:10:11.453Z,1.50
2023-05-19T02:12:41.161Z,1.48
2023-05-19T02:15:25.045Z,1.67
2023-05-19T02:17:55.694Z,1.48
2023-05-19T02:20:43.070Z,1.70
2023-05-19T02:23:10.431Z,1.80
2023-05-19T02:25:37.617Z,2.08
2023-05-19T02:28:05.030Z,2.20
2023-05-19T02:30:32.521Z,2.13
2023-05-19T02:33:00.585Z,2.28
2023-05-19T02:35:28.286Z,2.45
2023-05-19T02:37:55.500Z,2.38
2023-05-19T02:40:23.075Z,2.70
2023-05-19T02:42:50.269Z,2.50
2023-05-19T02:45:17.562Z,2.50
2023-05-19T02:47:44.839Z,2.53
2023-05-19T02:50:11.990Z,2.40
2023-05-19T02:52:39.421Z,2.90
2023-05-19T02:55:26.913Z,2.47
2023-05-19T02:57:54.086Z,2.50
2023-05-19T03:00:21.374Z,2.10
2023-05-19T03:02:48.757Z,2.28
2023-05-19T03:05:16.354Z,2.30
2023-05-19T03:07:43.535Z,2.25
2023-05-19T03:10:10.887Z,2.05
2023-05-19T03:12:38.147Z,2.00
2023-05-19T03:15:06.073Z,2.28
2023-05-19T03:17:34.451Z,2.40
2023-05-19T03:20:01.902Z,2.05
2023-05-19T03:22:32.395Z,2.08
2023-05-19T03:24:59.782Z,2.17
2023-05-19T03:27:26.883Z,2.20
2023-05-19T03:29:54.146Z,2.28
2023-05-19T03:32:21.446Z,2.20
2023-05-19T03:34:48.727Z,2.47
2023-05-19T03:37:15.987Z,2.30
2023-05-19T03:39:43.117Z,2.30
2023-05-19T03:42:10.672Z,2.50
2023-05-19T03:44:37.966Z,2.35
2023-05-19T03:47:05.549Z,2.42
2023-05-19T03:49:32.745Z,2.33
2023-05-19T03:52:00.059Z,2.80
2023-05-19T03:54:27.643Z,2.40
2023-05-19T03:56:55.117Z,2.35
2023-05-19T03:59:23.734Z,2.17
2023-05-19T04:01:51.819Z,2.67
2023-05-19T04:04:19.061Z,2.58
2023-05-19T04:06:46.928Z,2.50
2023-05-19T04:09:15.931Z,2.92
2023-05-19T04:11:43.405Z,2.50
2023-05-19T04:14:10.604Z,2.85
2023-05-19T04:16:38.484Z,3.17
2023-05-19T04:19:05.966Z,2.45
2023-05-19T04:21:52.198Z,2.38
2023-05-19T04:24:19.387Z,3.35
2023-05-19T04:26:47.663Z,2.60
2023-05-19T04:29:18.377Z,3.00
2023-05-19T04:31:46.135Z,2.80
2023-05-19T04:34:13.473Z,2.63
2023-05-19T04:36:40.799Z,2.88
2023-05-19T04:39:10.184Z,3.15
2023-05-19T04:41:40.498Z,3.03
2023-05-19T04:44:09.534Z,3.22
2023-05-19T04:46:36.966Z,3.63
2023-05-19T04:49:04.109Z,3.50
2023-05-19T04:51:31.632Z,3.28
2023-05-19T04:53:58.963Z,3.78
2023-05-19T04:56:27.537Z,3.50
2023-05-19T04:58:54.748Z,3.80
2023-05-19T05:01:26.481Z,3.72
2023-05-19T05:03:59.281Z,3.80
2023-05-19T05:06:26.906Z,4.22
2023-05-19T05:08:54.101Z,3.58
2023-05-19T05:11:22.208Z,4.22
2023-05-19T05:13:49.809Z,4.00
2023-05-19T05:16:17.251Z,3.72
2023-05-19T05:18:46.993Z,4.85
2023-05-19T05:21:14.426Z,5.43
2023-05-19T05:23:41.857Z,8.25
2023-05-19T05:26:18.919Z,7.75
2023-05-19T05:28:46.167Z,5.43
2023-05-19T05:31:13.316Z,5.95
2023-05-19T05:33:41.155Z,5.18
2023-05-19T05:36:08.842Z,4.78
2023-05-19T05:38:36.388Z,4.32
2023-05-19T05:41:03.811Z,4.60
2023-05-19T05:43:31.418Z,5.30
2023-05-19T05:45:58.710Z,4.55
2023-05-19T05:48:26.433Z,5.13
2023-05-19T05:50:54.777Z,7.28
2023-05-19T05:53:23.355Z,5.15
2023-05-19T05:55:51.313Z,4.90
2023-05-19T05:58:18.614Z,6.20
2023-05-19T06:00:47.971Z,5.28
2023-05-19T06:03:15.173Z,5.32
2023-05-19T06:05:42.445Z,5.30
2023-05-19T06:08:09.671Z,4.80
2023-05-19T06:10:39.090Z,5.03
2023-05-19T06:13:06.538Z,4.78
2023-05-19T06:15:33.922Z,5.50
2023-05-19T06:18:01.312Z,5.22
2023-05-19T06:20:29.036Z,5.10
2023-05-19T06:22:56.782Z,4.78
2023-05-19T06:25:24.999Z,5.63
2023-05-19T06:27:52.428Z,6.15
2023-05-19T06:30:19.714Z,5.95
2023-05-19T06:32:47.092Z,6.45
2023-05-19T06:35:14.881Z,5.88
2023-05-19T06:37:42.148Z,6.20
2023-05-19T06:40:10.412Z,6.25
2023-05-19T06:42:37.555Z,6.10
2023-05-19T06:45:05.148Z,6.53
2023-05-19T06:47:35.256Z,6.60
2023-05-19T06:50:02.540Z,6.45
2023-05-19T06:52:33.581Z,6.65
2023-05-19T06:55:00.778Z,6.07
2023-05-19T06:57:27.950Z,6.43
2023-05-19T06:59:55.081Z,6.18
2023-05-19T07:02:22.146Z,7.32
2023-05-19T07:04:49.430Z,6.80
2023-05-19T07:07:16.787Z,7.00
2023-05-19T07:09:43.937Z,6.07
2023-05-19T07:12:11.195Z,6.63
2023-05-19T07:14:39.048Z,6.30
2023-05-19T07:17:06.329Z,6.90
2023-05-19T07:19:33.473Z,6.88
2023-05-19T07:22:00.856Z,6.75
2023-05-19T07:24:28.425Z,7.25
2023-05-19T07:26:55.606Z,6.55
2023-05-19T07:29:22.973Z,6.70
2023-05-19T07:31:54.321Z,6.50
2023-05-19T07:34:22.181Z,6.60
2023-05-19T07:36:49.481Z,6.57
2023-05-19T07:39:16.813Z,6.80
2023-05-19T07:41:44.011Z,7.20
2023-05-19T07:44:31.678Z,6.97
2023-05-19T07:46:59.315Z,7.05
2023-05-19T07:49:26.559Z,7.25
2023-05-19T07:51:54.153Z,6.80
2023-05-19T07:54:21.815Z,6.95
2023-05-19T07:56:49.001Z,7.10
2023-05-19T07:59:16.626Z,6.53
2023-05-19T08:02:02.327Z,6.95
2023-05-19T08:04:29.767Z,7.35
2023-05-19T08:06:57.132Z,6.68
2023-05-19T08:09:43.082Z,6.55
2023-05-19T08:12:10.348Z,6.57
2023-05-19T08:14:37.577Z,7.38
2023-05-19T08:17:05.114Z,7.38
2023-05-19T08:19:32.411Z,7.97
2023-05-19T08:22:01.327Z,7.78
2023-05-19T08:24:33.006Z,7.97
2023-05-19T08:27:01.594Z,8.10
2023-05-19T08:29:29.033Z,7.97
2023-05-19T08:31:56.496Z,7.53
2023-05-19T08:34:23.769Z,7.00
2023-05-19T08:36:50.981Z,7.18
2023-05-19T08:39:20.181Z,7.53
2023-05-19T08:41:47.320Z,7.35
2023-05-19T08:44:15.281Z,7.55
2023-05-19T08:46:43.859Z,6.53
2023-05-19T08:49:14.134Z,6.18
2023-05-19T08:52:09.685Z,6.20
2023-05-19T08:54:45.409Z,6.00
2023-05-19T08:57:13.287Z,5.30
2023-05-19T08:59:43.338Z,5.70
2023-05-19T09:02:13.217Z,5.05
2023-05-19T09:04:42.099Z,4.65
2023-05-19T09:07:09.572Z,4.15
2023-05-19T09:09:36.710Z,3.72
2023-05-19T09:12:04.728Z,3.80
2023-05-19T09:14:33.319Z,3.78
2023-05-19T09:17:01.659Z,3.50
2023-05-19T09:19:30.172Z,3.67
2023-05-19T09:22:03.441Z,3.70
2023-05-19T09:24:31.132Z,4.38
2023-05-19T09:27:00.036Z,3.90
2023-05-19T09:29:27.649Z,3.83
2023-05-19T09:32:00.748Z,4.10
2023-05-19T09:34:28.565Z,3.72
2023-05-19T09:36:56.024Z,3.20
2023-05-19T09:39:24.187Z,3.33
2023-05-19T09:41:55.399Z,3.38
2023-05-19T09:44:32.858Z,3.60
2023-05-19T09:47:00.260Z,3.75
2023-05-19T09:49:32.987Z,3.05
2023-05-19T09:52:03.918Z,3.20
2023-05-19T09:54:32.619Z,3.00
2023-05-19T09:57:01.794Z,2.92
2023-05-19T09:59:33.014Z,2.85
2023-05-19T10:02:02.698Z,3.15
2023-05-19T10:04:31.762Z,2.92
2023-05-19T10:07:00.226Z,2.65
2023-05-19T10:09:29.524Z,3.47
2023-05-19T10:11:58.333Z,3.63
2023-05-19T10:14:29.267Z,3.10
2023-05-19T10:16:57.944Z,2.55
2023-05-19T10:19:27.561Z,2.95
2023-05-19T10:21:55.926Z,2.97
2023-05-19T10:24:23.515Z,2.65
2023-05-19T10:27:12.609Z,2.58
2023-05-19T10:29:46.012Z,2.70
2023-05-19T10:32:19.892Z,2.45
2023-05-19T10:35:04.876Z,2.65
2023-05-19T10:37:38.105Z,2.90
2023-05-19T10:42:56.754Z,2.80
2023-05-19T10:45:29.005Z,2.38
2023-05-19T10:47:56.508Z,2.55
2023-05-19T10:50:23.814Z,2.58
2023-05-19T10:52:56.223Z,3.15
2023-05-19T10:56:04.849Z,2.40
2023-05-19T10:58:44.298Z,2.08
2023-05-19T11:01:17.150Z,2.35
2023-05-19T11:03:52.411Z,2.40
2023-05-19T11:06:36.584Z,2.75
2023-05-19T11:09:16.682Z,1.80
2023-05-19T11:11:51.988Z,2.10
2023-05-19T11:14:28.986Z,2.08
2023-05-19T11:17:00.316Z,1.80
2023-05-19T11:19:32.763Z,2.20
2023-05-19T11:22:14.048Z,1.90
2023-05-19T11:24:50.346Z,2.10
2023-05-19T11:27:31.857Z,1.90
2023-05-19T11:30:11.773Z,1.90
2023-05-19T11:32:39.680Z,2.10
2023-05-19T11:35:08.913Z,1.85
2023-05-19T11:37:36.957Z,1.98
2023-05-19T11:40:07.421Z,1.77
2023-05-19T11:42:37.064Z,2.20
2023-05-19T11:45:06.529Z,1.85
2023-05-19T11:47:51.632Z,1.88
2023-05-19T11:50:24.388Z,1.85
2023-05-19T11:52:52.648Z,2.08
2023-05-19T11:55:23.484Z,2.00
2023-05-19T11:58:04.541Z,2.00
2023-05-19T12:00:40.456Z,1.83
2023-05-19T12:03:09.152Z,1.77
2023-05-19T12:05:48.745Z,2.30
2023-05-19T12:08:18.834Z,2.10
2023-05-19T12:10:52.132Z,1.98
2023-05-19T12:13:20.160Z,2.22
2023-05-19T12:15:47.488Z,1.75
2023-05-19T12:18:14.774Z,1.90
2023-05-19T12:20:42.174Z,1.80
2023-05-19T12:23:10.076Z,2.00
2023-05-19T12:25:38.525Z,2.00
2023-05-19T12:28:06.060Z,1.80
2023-05-19T12:30:34.784Z,1.80
2023-05-19T12:33:03.430Z,2.00
2023-05-19T12:35:34.737Z,1.65
2023-05-19T12:38:06.603Z,1.45
2023-05-19T12:40:37.785Z,1.60
2023-05-19T12:43:06.962Z,1.90
2023-05-19T12:45:39.913Z,1.83
2023-05-19T12:48:12.484Z,1.92
2023-05-19T12:50:39.884Z,1.60
2023-05-19T12:53:11.914Z,1.75
2023-05-19T12:55:44.117Z,1.60
2023-05-19T12:58:16.152Z,1.67
2023-05-19T13:00:46.476Z,1.70
2023-05-19T13:03:19.180Z,1.60
2023-05-19T13:05:48.765Z,1.45
2023-05-19T13:08:18.697Z,1.92
2023-05-19T13:10:46.984Z,1.50
2023-05-19T13:13:14.728Z,1.50
2023-05-19T13:15:43.946Z,1.63
2023-05-19T13:18:13.081Z,2.20
2023-05-19T13:20:42.278Z,2.03
2023-05-19T13:23:13.843Z,1.40
2023-05-19T13:25:41.948Z,1.67
2023-05-19T13:28:09.856Z,1.55
2023-05-19T13:30:39.215Z,1.70
2023-05-19T13:33:10.376Z,1.35
2023-05-19T13:35:38.306Z,1.85
2023-05-19T13:38:08.059Z,1.60
2023-05-19T13:40:35.500Z,1.83
2023-05-19T13:43:04.585Z,1.60
2023-05-19T13:45:32.065Z,1.60
2023-05-19T13:47:59.634Z,1.70
2023-05-19T13:50:26.897Z,1.70
2023-05-19T13:52:54.250Z,1.83
2023-05-19T13:55:22.650Z,1.90
2023-05-19T13:57:49.839Z,1.70
2023-05-19T14:00:18.458Z,1.75
2023-05-19T14:02:45.781Z,1.63
2023-05-19T14:05:13.232Z,1.73
2023-05-19T14:07:40.617Z,1.60
2023-05-19T14:10:08.460Z,1.80
2023-05-19T14:12:49.581Z,1.40
2023-05-19T14:15:23.890Z,1.73
2023-05-19T14:17:53.191Z,1.60
2023-05-19T14:20:20.613Z,1.63
2023-05-19T14:22:49.738Z,1.60
2023-05-19T14:25:17.090Z,1.70
2023-05-19T14:27:44.334Z,1.70
2023-05-19T14:30:12.021Z,1.80
2023-05-19T14:32:39.347Z,1.70
2023-05-19T14:35:07.213Z,1.83
2023-05-19T14:37:34.461Z,1.63
2023-05-19T14:40:20.098Z,1.50
2023-05-19T14:42:48.361Z,1.88
2023-05-19T14:45:15.600Z,1.60
2023-05-19T14:48:01.386Z,1.73
2023-05-19T14:50:29.402Z,1.90
2023-05-19T14:52:57.595Z,1.73
2023-05-19T14:55:24.898Z,1.67
2023-05-19T14:57:52.073Z,1.50
2023-05-19T15:00:19.545Z,1.65
2023-05-19T15:02:47.991Z,2.08
2023-05-19T15:05:15.510Z,1.77
2023-05-19T15:07:42.706Z,1.95
2023-05-19T15:10:10.199Z,1.55
2023-05-19T15:12:37.738Z,1.50
2023-05-19T15:15:05.737Z,1.40
2023-05-19T15:17:37.183Z,1.67
2023-05-19T15:20:04.923Z,1.33
2023-05-19T15:22:51.029Z,1.90
2023-05-19T15:25:18.583Z,1.45
2023-05-19T15:27:45.813Z,1.30
2023-05-19T15:30:13.981Z,1.80
2023-05-19T15:32:41.230Z,1.70
2023-05-19T15:35:09.063Z,1.50
2023-05-19T15:37:36.200Z,1.75
2023-05-19T15:40:03.800Z,1.63
2023-05-19T15:42:50.378Z,1.70
2023-05-19T15:45:17.774Z,1.73
2023-05-19T15:47:45.159Z,1.50
2023-05-19T15:50:13.158Z,1.42
2023-05-19T15:52:41.696Z,1.77
2023-05-19T15:55:09.459Z,1.70
2023-05-19T15:57:36.751Z,2.30
2023-05-19T16:00:04.239Z,1.60
2023-05-19T16:02:33.778Z,1.80
2023-05-19T16:05:01.286Z,1.65
2023-05-19T16:07:31.466Z,1.50
2023-05-19T16:09:58.791Z,2.10
2023-05-19T16:12:44.386Z,1.63
2023-05-19T16:15:11.669Z,1.52
2023-05-19T16:17:38.962Z,1.70
2023-05-19T16:20:06.954Z,1.70
2023-05-19T16:22:34.270Z,1.42
2023-05-19T16:25:01.567Z,1.70
2023-05-19T16:27:31.945Z,1.50
2023-05-19T16:30:01.124Z,1.50
2023-05-19T16:32:28.826Z,1.48
2023-05-19T16:34:56.243Z,2.03
2023-05-19T16:37:42.350Z,1.70
2023-05-19T16:40:09.894Z,1.70
2023-05-19T16:42:36.981Z,1.70
2023-05-19T16:45:04.620Z,1.40
2023-05-19T16:47:33.105Z,1.52
2023-05-19T16:50:00.344Z,1.35
2023-05-19T16:52:27.613Z,1.63
2023-05-19T16:54:54.905Z,1.73
2023-05-19T16:57:22.297Z,1.65
2023-05-19T16:59:49.750Z,1.75
2023-05-19T17:02:17.027Z,1.70
2023-05-19T17:04:44.320Z,1.60
2023-05-19T17:07:17.598Z,2.20
2023-05-19T17:09:45.236Z,1.63
2023-05-19T17:12:13.444Z,1.35
2023-05-19T17:14:42.343Z,1.00
2023-05-19T17:17:09.920Z,2.38
2023-05-19T17:19:37.177Z,1.30
2023-05-19T17:22:04.540Z,1.42
2023-05-19T17:24:33.370Z,1.67
2023-05-19T17:27:01.197Z,1.40
2023-05-19T17:29:28.518Z,1.42
2023-05-19T17:31:56.185Z,1.30
2023-05-19T17:34:23.566Z,1.10
2023-05-19T17:36:50.818Z,1.67
2023-05-19T17:39:20.401Z,1.77
2023-05-19T17:41:47.558Z,1.40
2023-05-19T17:44:15.165Z,1.50
2023-05-19T17:46:42.450Z,1.40
2023-05-19T17:49:10.847Z,1.80
2023-05-19T17:51:38.402Z,1.10
2023-05-19T17:54:05.987Z,1.40
2023-05-19T17:56:34.730Z,1.00
2023-05-19T17:59:02.223Z,1.20
2023-05-19T18:01:29.684Z,1.15
2023-05-19T18:03:57.328Z,1.17
2023-05-19T18:06:25.747Z,1.40
2023-05-19T18:08:54.851Z,1.30
2023-05-19T18:11:23.132Z,1.60
2023-05-19T18:13:50.370Z,1.17
2023-05-19T18:16:17.863Z,1.30
2023-05-19T18:18:50.405Z,1.25
2023-05-19T18:21:18.221Z,1.30
2023-05-19T18:23:46.077Z,1.40
2023-05-19T18:26:13.805Z,1.20
2023-05-19T18:28:41.898Z,1.50
2023-05-19T18:31:11.058Z,1.85
2023-05-19T18:33:38.383Z,1.13
2023-05-19T18:36:06.117Z,1.27
2023-05-19T18:38:55.227Z,1.15
2023-05-19T18:41:22.432Z,1.10
2023-05-19T18:43:49.893Z,1.27
2023-05-19T18:46:39.199Z,1.50
2023-05-19T18:49:06.453Z,1.30
2023-05-19T18:51:36.047Z,1.23
2023-05-19T18:54:22.531Z,1.20
2023-05-19T18:56:49.809Z,1.30
2023-05-19T18:59:16.939Z,1.60
2023-05-19T19:01:44.257Z,1.13
2023-05-19T19:04:30.688Z,1.30
2023-05-19T19:06:58.126Z,1.63
2023-05-19T19:09:25.374Z,1.42
2023-05-19T19:11:52.662Z,1.20
2023-05-19T19:14:19.850Z,1.20
2023-05-19T19:16:47.027Z,1.65
2023-05-19T19:19:32.992Z,1.30
2023-05-19T19:22:00.158Z,1.20
2023-05-19T19:24:28.604Z,1.10
2023-05-19T19:26:55.852Z,1.30
2023-05-19T19:29:23.152Z,1.30
2023-05-19T19:31:50.449Z,1.20
2023-05-19T19:34:20.014Z,1.30
2023-05-19T19:36:48.038Z,1.60
2023-05-19T19:39:15.145Z,1.40
2023-05-19T19:41:42.587Z,1.38
2023-05-19T19:44:28.257Z,1.30
2023-05-19T19:46:55.539Z,1.80
2023-05-19T19:49:22.725Z,1.52
2023-05-19T19:51:49.825Z,1.52
2023-05-19T19:54:35.743Z,2.10
2023-05-19T19:57:03.048Z,1.60
2023-05-19T19:59:30.622Z,1.40
2023-05-19T20:01:57.869Z,1.38
2023-05-19T20:04:25.464Z,1.27
2023-05-19T20:06:53.008Z,1.60
2023-05-19T20:09:20.219Z,1.17
2023-05-19T20:11:47.415Z,1.20
2023-05-19T20:14:14.757Z,1.20
2023-05-19T20:16:42.306Z,1.20
2023-05-19T20:19:09.804Z,1.33
2023-05-19T20:21:36.982Z,1.10
2023-05-19T20:24:04.506Z,1.17
2023-05-19T20:26:32.182Z,1.20
2023-05-19T20:28:59.365Z,1.40
2023-05-19T20:31:26.721Z,1.50
2023-05-19T20:33:54.009Z,1.30
2023-05-19T20:36:21.234Z,1.40
2023-05-19T20:38:48.381Z,1.50
2023-05-19T20:41:15.584Z,1.30
2023-05-19T20:43:43.092Z,1.35
2023-05-19T20:46:10.724Z,1.10
2023-05-19T20:48:37.931Z,1.60
2023-05-19T20:51:05.485Z,1.50
2023-05-19T20:53:32.909Z,1.70
2023-05-19T20:56:00.170Z,1.50
2023-05-19T20:58:30.295Z,0.90
2023-05-19T21:00:58.157Z,1.63
2023-05-19T21:03:27.010Z,1.50
2023-05-19T21:05:55.396Z,1.33
2023-05-19T21:08:23.167Z,1.60
2023-05-19T21:10:50.889Z,1.30
2023-05-19T21:13:18.918Z,1.90
2023-05-19T21:15:46.169Z,1.10
2023-05-19T21:18:13.501Z,1.63
2023-05-19T21:20:40.639Z,1.48
2023-05-19T21:23:07.914Z,1.40
2023-05-19T21:25:35.290Z,1.40
2023-05-19T21:28:02.414Z,1.00
2023-05-19T21:30:29.609Z,1.25
2023-05-19T21:32:57.292Z,1.25
2023-05-19T21:35:24.694Z,1.27
2023-05-19T21:37:51.864Z,1.17
2023-05-19T21:40:18.974Z,1.25
2023-05-19T21:42:48.479Z,1.33
2023-05-19T21:45:16.218Z,1.30
2023-05-19T21:47:43.554Z,1.20
2023-05-19T21:50:11.201Z,1.33
2023-05-19T21:52:38.743Z,1.20
2023-05-19T21:55:07.168Z,1.10
2023-05-19T21:57:34.357Z,1.00
2023-05-19T22:00:01.585Z,1.00
2023-05-19T22:02:29.636Z,1.13
2023-05-19T22:04:56.880Z,1.20
2023-05-19T22:07:27.086Z,1.17
2023-05-19T22:09:54.292Z,1.38
2023-05-19T22:12:21.582Z,1.10
2023-05-19T22:14:48.847Z,1.20
2023-05-19T22:17:16.167Z,1.02
2023-05-19T22:19:43.323Z,1.48
2023-05-19T22:22:14.128Z,1.33
2023-05-19T22:24:42.120Z,1.48
2023-05-19T22:27:09.402Z,1.25
2023-05-19T22:29:38.915Z,1.45
2023-05-19T22:32:07.959Z,5.32
2023-05-19T22:34:35.327Z,1.65
2023-05-19T22:37:03.035Z,1.17
2023-05-19T22:39:31.177Z,1.25
2023-05-19T22:41:58.282Z,1.40
2023-05-19T22:44:25.589Z,1.20
2023-05-19T22:46:52.814Z,1.13
2023-05-19T22:49:23.019Z,1.30
2023-05-19T22:51:50.587Z,1.42
2023-05-19T22:54:17.831Z,1.13
2023-05-19T22:56:46.494Z,1.30
2023-05-19T22:59:13.856Z,1.33
2023-05-19T23:01:41.202Z,1.13
2023-05-19T23:04:08.388Z,1.40
2023-05-19T23:06:35.534Z,1.17
2023-05-19T23:09:04.875Z,1.25
2023-05-19T23:11:32.016Z,1.30
2023-05-19T23:13:59.195Z,1.35
2023-05-19T23:16:26.640Z,1.30
2023-05-19T23:18:53.842Z,1.30
2023-05-19T23:21:21.033Z,1.30
2023-05-19T23:23:48.284Z,0.90
2023-05-19T23:26:15.628Z,1.45
2023-05-19T23:28:43.687Z,1.20
2023-05-19T23:31:11.145Z,1.10
2023-05-19T23:33:38.434Z,1.15
2023-05-19T23:36:08.003Z,0.95
2023-05-19T23:38:36.295Z,1.05
2023-05-19T23:41:03.987Z,1.35
2023-05-19T23:43:34.337Z,1.17
2023-05-19T23:46:01.963Z,1.20
2023-05-19T23:48:29.690Z,1.33
2023-05-19T23:50:58.291Z,1.20
2023-05-19T23:53:25.696Z,0.90
2023-05-19T23:55:52.953Z,1.00
2023-05-19T23:58:20.292Z,1.10
